EFVA

Vaasa Airport

Vaasa, Finland
METAR EFVA 191950Z AUTO 24012KT CAVOK 12/08 Q0997
Observed Flight Rules
Jun-19 @ 19:50 UTC (24 minutes ago) Visual Flight Rules
Wind Visibility Clouds
240° at 12 knots 10,000+ meters
  • Clear skies
Temperatures Readings
Current 12°C / 54°F
Dewpoint 8°C / 46°F
Humidity 77%
Altimeter 29.44" Hg
Pressure 997 hPa
Elevation 4
METAR EFVA 191950Z AUTO 24012KT CAVOK 12/08 Q0997
Observed Flight Rules
Jun-19 @ 19:50 UTC
(24 minutes ago)
VFR
Wind Visibility
240° at 12 knots 10,000+ meters
Clouds
  • Clear skies
Temperature Dewpoint
12°C / 54°F 8°C / 46°F
Humidity Altimeter Pressure
77% 29.44" Hg 997 hPa